Time;durP1;ratioP1;P1;durP2;ratioP2;P2;SDS_P1;SDS_P2;PMS_P1;PMS_P2;Temp;Humidity;BMP_temperature;BMP_pressure;BME280_temperature;BME280_humidity;BME280_pressure;Samples;Min_cycle;Max_cycle;Signal;HPM_P1;HPM_P2
2023/04/17 00:02:03;;;;;;;17.42;11.88;;;8.90;99.90;;;;;;5045594;28;20201;-66
2023/04/17 00:04:31;;;;;;;16.58;12.27;;;8.90;99.90;;;;;;5043592;28;20665;-66
2023/04/17 00:07:02;;;;;;;15.98;12.20;;;8.90;99.90;;;;;;5045408;28;20247;-66
2023/04/17 00:09:28;;;;;;;19.48;12.20;;;8.90;99.90;;;;;;5027182;28;20208;-66
2023/04/17 00:11:55;;;;;;;18.60;12.25;;;8.90;99.90;;;;;;5037631;28;20705;-66
2023/04/17 00:14:22;;;;;;;17.38;12.10;;;9.00;99.90;;;;;;5008907;28;20693;-66
2023/04/17 00:16:49;;;;;;;18.17;12.40;;;8.90;99.90;;;;;;5036104;28;20878;-66
2023/04/17 00:19:16;;;;;;;18.15;12.98;;;8.90;99.90;;;;;;5041527;28;20642;-66
2023/04/17 00:21:44;;;;;;;19.23;13.02;;;8.90;99.90;;;;;;5037757;28;20569;-66
2023/04/17 00:24:11;;;;;;;21.15;12.63;;;8.90;99.90;;;;;;5025123;28;20205;-66
2023/04/17 00:26:38;;;;;;;20.15;12.48;;;8.90;99.90;;;;;;5040859;28;20201;-66
2023/04/17 00:29:05;;;;;;;18.33;13.63;;;8.90;99.90;;;;;;5003703;28;22685;-67
2023/04/17 00:31:32;;;;;;;19.17;13.32;;;8.90;99.90;;;;;;5044601;28;20196;-66
2023/04/17 00:34:00;;;;;;;18.35;12.90;;;8.90;99.90;;;;;;5028782;28;20204;-66
2023/04/17 00:36:26;;;;;;;17.90;12.48;;;8.90;99.90;;;;;;5040143;28;20200;-66
2023/04/17 00:38:55;;;;;;;16.38;12.75;;;8.90;99.90;;;;;;5034471;28;20221;-67
2023/04/17 00:41:21;;;;;;;17.23;13.25;;;8.90;99.90;;;;;;5030397;28;20201;-66
2023/04/17 00:43:48;;;;;;;20.05;12.88;;;8.90;99.90;;;;;;5022486;28;20201;-67
2023/04/17 00:46:15;;;;;;;22.95;13.73;;;8.90;99.90;;;;;;5020833;28;20198;-67
2023/04/17 00:48:43;;;;;;;18.33;12.95;;;8.90;99.90;;;;;;5029393;28;20674;-66
2023/04/17 00:51:10;;;;;;;21.63;14.20;;;8.90;99.90;;;;;;5025648;28;20483;-67
2023/04/17 00:53:37;;;;;;;18.08;12.93;;;8.90;99.90;;;;;;5042261;28;20208;-67
2023/04/17 00:56:06;;;;;;;17.77;13.20;;;8.90;99.90;;;;;;5016570;28;20288;-66
2023/04/17 00:58:35;;;;;;;18.83;12.73;;;8.90;99.90;;;;;;5041295;28;20228;-66
2023/04/17 01:01:03;;;;;;;19.08;13.20;;;8.90;99.90;;;;;;5006226;28;20205;-66
2023/04/17 01:03:31;;;;;;;21.08;12.68;;;8.80;99.90;;;;;;5043971;28;20209;-66
2023/04/17 01:05:59;;;;;;;16.35;12.95;;;8.80;99.90;;;;;;5029940;28;20225;-66
2023/04/17 01:08:26;;;;;;;16.85;13.10;;;8.80;99.90;;;;;;5035454;28;20866;-66
2023/04/17 01:10:52;;;;;;;19.15;13.63;;;8.80;99.90;;;;;;5026025;28;20212;-67
2023/04/17 01:13:21;;;;;;;17.30;12.25;;;8.80;99.90;;;;;;5040109;28;20201;-66
2023/04/17 01:15:48;;;;;;;18.98;12.90;;;8.70;99.90;;;;;;5028412;28;20773;-67
2023/04/17 01:18:15;;;;;;;18.52;13.02;;;8.70;99.90;;;;;;5020667;28;20429;-66
2023/04/17 01:20:42;;;;;;;22.40;13.80;;;8.70;99.90;;;;;;5031159;28;20223;-67
2023/04/17 01:23:09;;;;;;;21.92;13.90;;;8.70;99.90;;;;;;5037085;28;20415;-66
2023/04/17 01:25:37;;;;;;;17.85;13.65;;;8.60;99.90;;;;;;5027722;28;20204;-66
2023/04/17 01:28:04;;;;;;;16.80;12.63;;;8.50;99.90;;;;;;5035981;28;20535;-66
2023/04/17 01:30:31;;;;;;;16.63;12.90;;;8.50;99.90;;;;;;5043132;28;20199;-67
2023/04/17 01:32:58;;;;;;;18.42;13.05;;;8.60;99.90;;;;;;5008400;28;20220;-67
2023/04/17 01:35:24;;;;;;;20.77;12.48;;;8.50;99.90;;;;;;5035271;28;21023;-66
2023/04/17 01:37:51;;;;;;;18.95;13.18;;;8.50;99.90;;;;;;5038717;28;20216;-66
2023/04/17 01:40:18;;;;;;;22.52;13.32;;;8.50;99.90;;;;;;5046120;28;20318;-66
2023/04/17 01:42:46;;;;;;;23.92;13.55;;;8.50;99.90;;;;;;5031047;28;20210;-66
2023/04/17 01:45:13;;;;;;;19.58;12.80;;;8.40;99.90;;;;;;5042188;28;20851;-66
2023/04/17 01:47:40;;;;;;;18.95;13.38;;;8.50;99.90;;;;;;5004680;28;20627;-67
2023/04/17 01:50:08;;;;;;;22.38;13.57;;;8.50;99.90;;;;;;5038428;28;20496;-66
2023/04/17 01:52:35;;;;;;;18.00;13.23;;;8.50;99.90;;;;;;5033677;28;20205;-66
2023/04/17 01:55:02;;;;;;;19.65;13.90;;;8.50;99.90;;;;;;5032589;28;20562;-66
2023/04/17 01:57:29;;;;;;;19.77;13.98;;;8.50;99.90;;;;;;5029242;28;20669;-66
2023/04/17 01:59:57;;;;;;;20.65;13.23;;;8.50;99.90;;;;;;5043580;28;20231;-66
2023/04/17 02:02:24;;;;;;;20.77;14.05;;;8.50;99.90;;;;;;5011011;28;20213;-67
2023/04/17 02:04:51;;;;;;;17.80;13.30;;;8.50;99.90;;;;;;5033762;28;20204;-66
2023/04/17 02:07:18;;;;;;;20.25;13.75;;;8.50;99.90;;;;;;5028983;28;20201;-67
2023/04/17 02:09:45;;;;;;;19.95;14.50;;;8.40;99.90;;;;;;5038551;28;20726;-66
2023/04/17 02:12:11;;;;;;;24.13;15.73;;;8.40;99.90;;;;;;5019726;28;20437;-67
2023/04/17 02:14:38;;;;;;;21.65;14.93;;;8.40;99.90;;;;;;5036185;28;20529;-66
2023/04/17 02:17:06;;;;;;;25.13;15.52;;;8.40;99.90;;;;;;5038358;28;21238;-67
2023/04/17 02:19:34;;;;;;;19.97;14.93;;;8.40;99.90;;;;;;5001384;28;20237;-66
2023/04/17 02:22:00;;;;;;;21.00;15.02;;;8.40;99.90;;;;;;5029703;28;20196;-66
2023/04/17 02:24:27;;;;;;;27.38;15.55;;;8.40;99.90;;;;;;5027593;28;20200;-67
2023/04/17 02:26:55;;;;;;;24.83;17.02;;;8.40;99.90;;;;;;5025380;28;20189;-66
2023/04/17 02:29:22;;;;;;;25.30;15.63;;;8.40;99.90;;;;;;5020900;28;20250;-66
2023/04/17 02:31:48;;;;;;;21.92;15.88;;;8.40;99.90;;;;;;5037825;28;20197;-66
2023/04/17 02:34:16;;;;;;;24.17;17.38;;;8.40;99.90;;;;;;4999966;28;21013;-67
2023/04/17 02:36:43;;;;;;;26.17;16.75;;;8.40;99.90;;;;;;5033578;28;20188;-66
2023/04/17 02:39:10;;;;;;;24.48;15.43;;;8.40;99.90;;;;;;5029756;28;20421;-66
2023/04/17 02:41:37;;;;;;;24.05;15.70;;;8.40;99.90;;;;;;5036565;28;21653;-66
2023/04/17 02:44:03;;;;;;;24.30;16.20;;;8.40;99.90;;;;;;5006353;28;21170;-66
2023/04/17 02:46:30;;;;;;;22.90;15.05;;;8.50;99.90;;;;;;5037021;28;21545;-66
2023/04/17 02:48:57;;;;;;;25.42;15.95;;;8.40;99.90;;;;;;5010635;28;20193;-67
2023/04/17 02:51:26;;;;;;;25.13;16.20;;;8.40;99.90;;;;;;5037265;28;20200;-66
2023/04/17 02:53:52;;;;;;;22.35;16.48;;;8.50;99.90;;;;;;5036737;28;20233;-66
2023/04/17 02:56:19;;;;;;;23.58;15.30;;;8.50;99.90;;;;;;5041017;28;20431;-66
2023/04/17 02:58:46;;;;;;;21.90;15.55;;;8.50;99.90;;;;;;5040242;28;20231;-66
2023/04/17 03:01:13;;;;;;;27.83;16.00;;;8.50;99.90;;;;;;5032190;28;20201;-66
2023/04/17 03:03:41;;;;;;;25.42;15.52;;;8.50;99.90;;;;;;5040754;28;20520;-66
2023/04/17 03:06:08;;;;;;;22.60;14.85;;;8.40;99.90;;;;;;5001800;28;20312;-66
2023/04/17 03:08:37;;;;;;;22.25;15.25;;;8.40;99.90;;;;;;5035019;28;20283;-66
2023/04/17 03:11:04;;;;;;;23.58;16.00;;;8.30;99.90;;;;;;5022256;28;20297;-66
2023/04/17 03:13:33;;;;;;;23.20;15.85;;;8.40;99.90;;;;;;5037406;28;20739;-67
2023/04/17 03:16:00;;;;;;;20.92;15.18;;;8.30;99.90;;;;;;5015973;28;20300;-66
2023/04/17 03:18:27;;;;;;;22.77;15.35;;;8.30;99.90;;;;;;5032270;28;20224;-66
2023/04/17 03:20:54;;;;;;;23.58;15.02;;;8.30;99.90;;;;;;4999563;28;20228;-67
2023/04/17 03:23:21;;;;;;;22.40;15.55;;;8.30;99.90;;;;;;5032628;28;20188;-66
2023/04/17 03:25:50;;;;;;;23.42;15.20;;;8.20;99.90;;;;;;5027233;28;20485;-66
2023/04/17 03:28:17;;;;;;;20.95;15.57;;;8.20;99.90;;;;;;5030913;28;20228;-66
2023/04/17 03:30:44;;;;;;;22.58;15.15;;;8.20;99.90;;;;;;5020801;28;20212;-66
2023/04/17 03:33:10;;;;;;;24.45;16.02;;;8.10;99.90;;;;;;5029628;28;20418;-66
2023/04/17 03:35:37;;;;;;;22.05;14.70;;;8.10;99.90;;;;;;5040756;28;20436;-66
2023/04/17 03:38:04;;;;;;;22.75;16.05;;;8.10;99.90;;;;;;5011729;28;20586;-66
2023/04/17 03:40:31;;;;;;;22.42;15.25;;;8.10;99.90;;;;;;5048857;28;20234;-66
2023/04/17 03:42:59;;;;;;;23.77;15.90;;;8.10;99.90;;;;;;5040954;28;20193;-66
2023/04/17 03:45:26;;;;;;;23.63;16.23;;;8.10;99.90;;;;;;5030207;28;20231;-66
2023/04/17 03:47:53;;;;;;;24.75;16.40;;;8.10;99.90;;;;;;5018490;28;20192;-66
2023/04/17 03:50:19;;;;;;;24.23;17.23;;;8.10;99.90;;;;;;5027444;28;20224;-66
2023/04/17 03:52:46;;;;;;;25.08;16.42;;;8.10;99.90;;;;;;5007043;28;20227;-67
2023/04/17 03:55:13;;;;;;;27.80;17.80;;;8.10;99.90;;;;;;5041327;28;20197;-66
2023/04/17 03:57:40;;;;;;;33.40;17.30;;;8.10;99.90;;;;;;5033672;28;20939;-66
2023/04/17 04:00:10;;;;;;;28.00;16.80;;;8.20;99.90;;;;;;5040002;28;20220;-66
2023/04/17 04:02:37;;;;;;;28.83;17.90;;;8.20;99.90;;;;;;5005624;28;20304;-67
2023/04/17 04:05:04;;;;;;;24.60;17.48;;;8.20;99.90;;;;;;5036241;28;20244;-66
2023/04/17 04:07:31;;;;;;;24.98;17.00;;;8.20;99.90;;;;;;4990942;28;20210;-67
2023/04/17 04:09:57;;;;;;;23.65;16.60;;;8.20;99.90;;;;;;5038159;28;20632;-66
2023/04/17 04:12:24;;;;;;;28.25;17.52;;;8.20;99.90;;;;;;5042583;28;20192;-66
2023/04/17 04:14:51;;;;;;;25.58;16.88;;;8.20;99.90;;;;;;5018540;28;20445;-66
2023/04/17 04:17:19;;;;;;;26.70;17.42;;;8.20;99.90;;;;;;5033095;28;20197;-66
2023/04/17 04:19:46;;;;;;;24.33;17.55;;;8.20;99.90;;;;;;5012762;28;20910;-67
2023/04/17 04:22:13;;;;;;;22.60;16.15;;;8.30;99.90;;;;;;5041105;28;20193;-66
2023/04/17 04:24:41;;;;;;;30.65;17.70;;;8.30;99.90;;;;;;5007954;28;20484;-67
2023/04/17 04:27:08;;;;;;;29.70;16.65;;;8.30;99.90;;;;;;5031313;28;20201;-66
2023/04/17 04:29:36;;;;;;;26.92;17.30;;;8.30;99.90;;;;;;5034861;28;21055;-66
2023/04/17 04:32:03;;;;;;;31.92;18.33;;;8.30;99.90;;;;;;5038165;28;20237;-66
2023/04/17 04:34:32;;;;;;;23.50;16.92;;;8.30;99.90;;;;;;5025974;28;20625;-66
2023/04/17 04:36:58;;;;;;;30.90;16.92;;;8.30;99.90;;;;;;5021306;28;20224;-66
2023/04/17 04:39:25;;;;;;;24.63;17.25;;;8.30;99.90;;;;;;4988926;28;20232;-67
2023/04/17 04:41:52;;;;;;;23.55;17.13;;;8.50;99.90;;;;;;5005373;28;20227;-66
2023/04/17 04:44:19;;;;;;;25.05;17.85;;;8.30;99.90;;;;;;5032040;28;20812;-67
2023/04/17 04:46:47;;;;;;;25.30;17.73;;;8.30;99.90;;;;;;5032938;28;20196;-66
2023/04/17 04:49:14;;;;;;;26.38;17.55;;;8.30;99.90;;;;;;5005204;28;20235;-67
2023/04/17 04:51:42;;;;;;;26.25;17.20;;;8.20;99.90;;;;;;5014952;28;20311;-67
2023/04/17 04:54:09;;;;;;;26.95;17.00;;;8.20;99.90;;;;;;4995577;28;20212;-67
2023/04/17 04:56:37;;;;;;;24.73;17.10;;;8.20;99.90;;;;;;5033880;28;20197;-67
2023/04/17 04:59:03;;;;;;;22.48;16.52;;;8.20;99.90;;;;;;5038913;28;20297;-67
2023/04/17 05:01:30;;;;;;;22.02;16.60;;;8.20;99.90;;;;;;5038653;28;20197;-66
2023/04/17 05:03:57;;;;;;;20.60;15.55;;;8.30;99.90;;;;;;5013263;28;20225;-66
2023/04/17 05:06:24;;;;;;;28.75;17.02;;;8.20;99.90;;;;;;5023064;28;20365;-66
2023/04/17 05:08:52;;;;;;;21.98;16.60;;;8.20;99.90;;;;;;5024261;28;21480;-66
2023/04/17 05:11:19;;;;;;;25.35;15.85;;;8.20;99.90;;;;;;5012935;28;20225;-66
2023/04/17 05:13:45;;;;;;;28.33;15.65;;;8.20;99.90;;;;;;5038551;28;20228;-66
2023/04/17 05:16:12;;;;;;;24.60;16.43;;;8.20;99.90;;;;;;5041251;28;20217;-66
2023/04/17 05:18:39;;;;;;;24.15;15.95;;;8.10;99.90;;;;;;5028298;28;20221;-66
2023/04/17 05:21:06;;;;;;;25.02;15.85;;;8.00;99.90;;;;;;5028504;28;20724;-67
2023/04/17 05:23:33;;;;;;;22.00;16.48;;;8.10;99.90;;;;;;5044742;28;20201;-67
2023/04/17 05:26:01;;;;;;;22.13;16.20;;;8.00;99.90;;;;;;5010269;28;20725;-67
2023/04/17 05:28:28;;;;;;;29.77;16.27;;;8.10;99.90;;;;;;5046258;28;20197;-67
2023/04/17 05:30:55;;;;;;;23.60;15.90;;;8.10;99.90;;;;;;5038998;28;20270;-66
2023/04/17 05:33:22;;;;;;;23.80;16.15;;;8.10;99.90;;;;;;5020102;28;20686;-66
2023/04/17 05:35:50;;;;;;;22.58;15.30;;;8.00;99.90;;;;;;5016366;28;20403;-66
2023/04/17 05:38:16;;;;;;;21.17;15.82;;;8.10;99.90;;;;;;5042985;28;20555;-66
2023/04/17 05:40:43;;;;;;;28.85;16.75;;;8.10;99.90;;;;;;4998223;28;20228;-66
2023/04/17 05:43:12;;;;;;;24.00;16.25;;;8.10;99.90;;;;;;5044150;28;20197;-66
2023/04/17 05:45:40;;;;;;;30.38;17.20;;;8.10;99.90;;;;;;5033881;28;20410;-66
2023/04/17 05:48:07;;;;;;;23.02;16.15;;;8.20;99.90;;;;;;5040961;28;20200;-66
2023/04/17 05:50:33;;;;;;;29.40;16.20;;;8.30;99.90;;;;;;5020859;28;20235;-66
2023/04/17 05:53:00;;;;;;;27.95;16.83;;;8.20;99.90;;;;;;5034134;28;20225;-66
2023/04/17 05:55:27;;;;;;;27.92;18.08;;;8.30;99.90;;;;;;5024545;28;20247;-66
2023/04/17 05:57:54;;;;;;;27.10;16.10;;;8.30;99.90;;;;;;4985263;28;20205;-66
2023/04/17 06:00:23;;;;;;;28.77;17.20;;;8.30;99.90;;;;;;5046313;28;20231;-66
2023/04/17 06:02:51;;;;;;;22.60;15.93;;;8.30;99.90;;;;;;5039954;28;20887;-66
2023/04/17 06:05:18;;;;;;;24.92;16.45;;;8.40;99.90;;;;;;5030011;28;20345;-66
2023/04/17 06:07:44;;;;;;;23.52;15.93;;;8.40;99.90;;;;;;4992247;28;21977;-66
2023/04/17 06:10:11;;;;;;;23.67;16.80;;;8.50;99.90;;;;;;5041596;28;20566;-66
2023/04/17 06:12:38;;;;;;;31.20;18.63;;;8.50;99.90;;;;;;4991742;28;20209;-67
2023/04/17 06:15:07;;;;;;;25.23;17.77;;;8.50;99.90;;;;;;5021973;28;20200;-66
2023/04/17 06:17:36;;;;;;;29.83;19.17;;;8.50;99.90;;;;;;5035759;28;20189;-66
2023/04/17 06:20:03;;;;;;;32.92;20.08;;;8.60;99.90;;;;;;5034097;28;20267;-66
2023/04/17 06:22:30;;;;;;;28.42;18.30;;;8.60;99.90;;;;;;5027607;28;20203;-66
2023/04/17 06:24:57;;;;;;;29.25;19.13;;;8.70;99.90;;;;;;5027381;28;20196;-66
2023/04/17 06:27:24;;;;;;;25.98;17.92;;;8.80;99.90;;;;;;5006141;28;20678;-66
2023/04/17 06:29:50;;;;;;;32.65;19.08;;;8.80;99.90;;;;;;5024365;28;20322;-66
2023/04/17 06:32:17;;;;;;;32.05;19.88;;;8.90;99.90;;;;;;5036832;28;20196;-66
2023/04/17 06:34:45;;;;;;;29.33;19.98;;;8.90;99.90;;;;;;5025938;28;20701;-66
2023/04/17 06:37:12;;;;;;;34.67;20.27;;;9.00;99.90;;;;;;5030264;28;20212;-66
2023/04/17 06:39:39;;;;;;;30.48;18.83;;;9.00;99.90;;;;;;5041433;28;20919;-66
2023/04/17 06:42:06;;;;;;;29.08;20.55;;;9.10;99.90;;;;;;5040850;28;20231;-66
2023/04/17 06:44:33;;;;;;;27.58;19.27;;;9.10;99.90;;;;;;5008608;28;20212;-66
2023/04/17 06:47:02;;;;;;;32.03;19.98;;;9.20;99.90;;;;;;5039457;28;20198;-66
2023/04/17 06:49:30;;;;;;;27.80;19.52;;;9.20;99.90;;;;;;5038895;28;20207;-66
2023/04/17 06:51:58;;;;;;;32.03;21.60;;;9.20;99.90;;;;;;5023270;28;20204;-66
2023/04/17 06:54:25;;;;;;;29.00;20.23;;;9.20;99.90;;;;;;5041424;28;20666;-66
2023/04/17 06:56:52;;;;;;;29.27;19.65;;;9.20;99.90;;;;;;5040241;28;20284;-66
2023/04/17 06:59:19;;;;;;;31.88;20.42;;;9.30;99.90;;;;;;5012515;28;20198;-66
2023/04/17 07:01:46;;;;;;;31.50;21.40;;;9.30;99.90;;;;;;5041041;28;20486;-66
2023/04/17 07:04:13;;;;;;;31.73;21.73;;;9.40;99.90;;;;;;5043509;28;20705;-66
2023/04/17 07:06:40;;;;;;;32.22;22.10;;;9.50;99.90;;;;;;5016097;28;20580;-66
2023/04/17 07:09:08;;;;;;;30.98;21.23;;;9.50;99.90;;;;;;5031280;28;20562;-67
2023/04/17 07:11:35;;;;;;;29.67;20.90;;;9.60;99.90;;;;;;5026589;28;20318;-67
2023/04/17 07:14:01;;;;;;;34.60;22.05;;;9.60;99.90;;;;;;5014292;28;20307;-67
2023/04/17 07:16:28;;;;;;;30.15;20.25;;;9.70;99.90;;;;;;5041000;28;20213;-66
2023/04/17 07:18:55;;;;;;;30.67;20.00;;;9.80;99.90;;;;;;5041347;28;20409;-66
2023/04/17 07:21:22;;;;;;;32.85;21.63;;;9.90;99.90;;;;;;5039012;28;20224;-66
2023/04/17 07:23:48;;;;;;;35.38;22.10;;;9.90;99.90;;;;;;5015175;28;20201;-67
2023/04/17 07:26:16;;;;;;;31.38;21.77;;;9.90;99.90;;;;;;5042115;28;20221;-66
2023/04/17 07:28:43;;;;;;;32.88;21.85;;;10.00;99.90;;;;;;5031548;28;20205;-66
2023/04/17 07:31:10;;;;;;;30.33;21.05;;;10.10;99.90;;;;;;5011926;28;20883;-66
2023/04/17 07:33:37;;;;;;;31.23;20.38;;;10.20;99.90;;;;;;5033675;28;20193;-67
2023/04/17 07:36:07;;;;;;;34.60;21.38;;;10.20;99.90;;;;;;5040539;28;20193;-67
2023/04/17 07:38:34;;;;;;;29.38;21.65;;;10.20;99.90;;;;;;5027059;28;20291;-67
2023/04/17 07:41:01;;;;;;;30.30;19.83;;;10.20;99.90;;;;;;5045447;28;20239;-66
2023/04/17 07:43:29;;;;;;;30.45;20.85;;;10.30;99.90;;;;;;5039783;28;20200;-66
2023/04/17 07:45:57;;;;;;;29.88;21.75;;;10.30;99.90;;;;;;5008310;28;20864;-66
2023/04/17 07:48:26;;;;;;;29.55;21.08;;;10.40;99.90;;;;;;5035628;28;20212;-66
2023/04/17 07:50:53;;;;;;;27.98;18.55;;;10.40;99.90;;;;;;5040413;28;20293;-66
2023/04/17 07:53:21;;;;;;;25.50;19.13;;;10.60;99.90;;;;;;5033439;28;20231;-66
2023/04/17 07:55:47;;;;;;;27.27;18.75;;;10.60;99.90;;;;;;5039937;28;20611;-67
2023/04/17 07:58:15;;;;;;;24.65;18.23;;;10.70;99.90;;;;;;5030421;28;20583;-66
2023/04/17 08:00:43;;;;;;;27.30;17.73;;;10.80;99.90;;;;;;4990223;28;20392;-67
2023/04/17 08:03:12;;;;;;;27.13;16.35;;;10.80;98.50;;;;;;5041607;28;20524;-66
2023/04/17 08:05:39;;;;;;;30.75;16.75;;;10.90;97.30;;;;;;5029796;28;20750;-67
2023/04/17 08:08:06;;;;;;;23.63;15.73;;;11.00;88.90;;;;;;5040362;28;20303;-67
2023/04/17 08:10:33;;;;;;;20.90;15.13;;;11.00;72.40;;;;;;5021745;28;20227;-66
2023/04/17 08:13:00;;;;;;;33.45;18.58;;;11.10;69.70;;;;;;5045977;28;20193;-66
2023/04/17 08:15:27;;;;;;;24.38;16.25;;;11.30;74.90;;;;;;5042607;28;20219;-66
2023/04/17 08:17:56;;;;;;;23.92;15.23;;;11.40;60.70;;;;;;5006812;28;20355;-66
2023/04/17 08:20:23;;;;;;;24.00;14.80;;;11.50;56.20;;;;;;5030751;28;20661;-66
2023/04/17 08:22:50;;;;;;;20.92;14.27;;;11.50;52.10;;;;;;5034793;28;20200;-66
2023/04/17 08:25:17;;;;;;;22.08;14.60;;;11.50;23.50;;;;;;5029229;28;20693;-66
2023/04/17 08:27:45;;;;;;;26.15;14.77;;;11.60;27.40;;;;;;5030752;28;20762;-66
2023/04/17 08:30:12;;;;;;;25.70;14.45;;;11.70;14.50;;;;;;5047839;28;20673;-67
2023/04/17 08:32:40;;;;;;;22.80;13.70;;;11.70;17.20;;;;;;5012329;28;21189;-67
2023/04/17 08:35:10;;;;;;;22.60;14.20;;;11.80;20.80;;;;;;5045524;28;20673;-67
2023/04/17 08:37:37;;;;;;;17.13;12.52;;;11.90;15.10;;;;;;5044007;28;20811;-67
2023/04/17 08:40:08;;;;;;;18.50;12.88;;;11.90;1.00;;;;;;5031836;28;20201;-66
2023/04/17 08:42:36;;;;;;;16.95;12.23;;;11.90;1.00;;;;;;5028753;28;20497;-67
2023/04/17 08:45:05;;;;;;;15.60;11.68;;;11.90;1.00;;;;;;5048763;28;20201;-66
2023/04/17 08:47:34;;;;;;;26.42;12.70;;;11.90;1.00;;;;;;5044686;28;20588;-66
2023/04/17 08:50:06;;;;;;;16.67;11.65;;;12.00;1.00;;;;;;5002965;28;20503;-66
2023/04/17 08:52:35;;;;;;;19.70;11.68;;;12.10;1.00;;;;;;5048282;28;20200;-66
2023/04/17 08:55:02;;;;;;;14.65;11.25;;;12.10;1.00;;;;;;5028982;28;20630;-66
2023/04/17 08:57:28;;;;;;;33.67;13.95;;;12.20;1.00;;;;;;5036295;28;20346;-66
2023/04/17 08:59:55;;;;;;;18.13;13.20;;;12.10;1.00;;;;;;5045740;28;20655;-66
2023/04/17 09:02:22;;;;;;;18.35;12.27;;;12.10;1.00;;;;;;5046360;28;20217;-66
2023/04/17 09:04:49;;;;;;;22.35;12.93;;;12.30;1.00;;;;;;5004581;28;20255;-66
2023/04/17 09:07:16;;;;;;;18.50;11.68;;;12.40;1.00;;;;;;5045632;28;20199;-67
2023/04/17 09:09:48;;;;;;;19.48;13.60;;;12.40;1.00;;;;;;5039075;28;20197;-67
2023/04/17 09:12:16;;;;;;;21.85;14.00;;;12.50;1.00;;;;;;5027397;28;20512;-67
2023/04/17 09:14:43;;;;;;;18.88;13.80;;;12.40;1.00;;;;;;5042689;28;20524;-66
2023/04/17 09:17:10;;;;;;;17.55;13.07;;;12.50;1.00;;;;;;5042666;28;20795;-66
2023/04/17 09:19:36;;;;;;;18.08;13.35;;;12.50;1.00;;;;;;5012921;28;20553;-66
2023/04/17 09:22:20;;;;;;;22.40;12.75;;;12.50;1.00;;;;;;5037657;28;20236;-66
2023/04/17 09:24:48;;;;;;;17.77;12.30;;;12.60;1.00;;;;;;5046638;28;20189;-66
2023/04/17 09:27:22;;;;;;;18.60;13.18;;;12.50;1.00;;;;;;5034598;28;20209;-66
2023/04/17 09:29:59;;;;;;;19.85;13.35;;;12.60;1.00;;;;;;5042905;28;20222;-66
2023/04/17 09:32:27;;;;;;;17.30;10.82;;;12.70;1.00;;;;;;5049450;28;20254;-66
2023/04/17 09:34:55;;;;;;;15.68;10.77;;;12.70;1.00;;;;;;5009230;28;20560;-66
2023/04/17 09:37:22;;;;;;;18.58;11.55;;;12.70;1.00;;;;;;5039296;28;20605;-66
2023/04/17 09:39:58;;;;;;;16.33;12.23;;;12.80;1.00;;;;;;5041957;28;20209;-67
2023/04/17 09:42:26;;;;;;;16.80;12.10;;;12.80;1.00;;;;;;5029197;28;20228;-66
2023/04/17 09:44:53;;;;;;;17.63;12.05;;;12.80;1.00;;;;;;5037638;28;20665;-66
2023/04/17 09:47:20;;;;;;;20.13;11.88;;;12.80;1.00;;;;;;5043087;28;20372;-66
2023/04/17 09:49:51;;;;;;;13.38;10.60;;;12.70;1.00;;;;;;5032193;28;20205;-66
2023/04/17 09:52:19;;;;;;;13.55;9.70;;;12.90;1.00;;;;;;5009307;28;20256;-66
2023/04/17 09:54:48;;;;;;;14.63;10.70;;;12.70;1.00;;;;;;5029711;28;20194;-66
2023/04/17 09:57:17;;;;;;;17.20;11.05;;;12.90;1.00;;;;;;5029188;28;20256;-66
2023/04/17 09:59:46;;;;;;;15.82;9.77;;;13.00;1.00;;;;;;5033129;28;20689;-66
2023/04/17 10:02:15;;;;;;;13.70;9.70;;;12.90;1.00;;;;;;5040384;28;20592;-66
2023/04/17 10:04:42;;;;;;;14.75;9.65;;;12.90;1.00;;;;;;5045587;28;20276;-66
2023/04/17 10:07:10;;;;;;;14.90;9.10;;;12.90;99.90;;;;;;5011989;28;20201;-66
2023/04/17 10:09:38;;;;;;;15.15;11.13;;;13.00;99.90;;;;;;5034909;28;24322;-66
2023/04/17 10:12:06;;;;;;;18.33;12.10;;;13.00;99.90;;;;;;5029280;28;20294;-66
2023/04/17 10:14:38;;;;;;;18.90;11.32;;;13.00;99.90;;;;;;5041249;28;20378;-66
2023/04/17 10:17:23;;;;;;;18.05;11.70;;;12.90;99.90;;;;;;5040798;28;20743;-66
2023/04/17 10:19:50;;;;;;;12.13;9.88;;;13.00;99.90;;;;;;5042830;28;20201;-66
2023/04/17 10:22:31;;;;;;;13.63;8.98;;;13.00;99.90;;;;;;5009564;28;20225;-66
2023/04/17 10:25:18;;;;;;;13.27;9.48;;;13.00;99.90;;;;;;5045190;28;20670;-66
2023/04/17 10:27:47;;;;;;;15.27;8.90;;;13.20;99.90;;;;;;5015294;28;20402;-66
2023/04/17 10:30:16;;;;;;;14.80;10.20;;;13.30;99.90;;;;;;5044825;28;20195;-66
2023/04/17 10:32:45;;;;;;;14.18;9.32;;;13.40;99.90;;;;;;5028875;28;20197;-66
2023/04/17 10:35:34;;;;;;;16.35;9.38;;;13.50;99.90;;;;;;5046293;28;20209;-66
2023/04/17 10:38:06;;;;;;;13.32;10.15;;;13.60;99.90;;;;;;5031785;28;20420;-66
2023/04/17 10:40:34;;;;;;;15.38;9.80;;;13.70;99.90;;;;;;5041099;28;20200;-66
2023/04/17 10:43:03;;;;;;;11.07;8.68;;;13.60;99.90;;;;;;5037809;28;20203;-65
2023/04/17 10:45:53;;;;;;;13.10;10.25;;;13.70;99.90;;;;;;5046528;28;20193;-65
2023/04/17 10:48:21;;;;;;;10.93;8.68;;;13.60;99.90;;;;;;5030903;28;20252;-66
2023/04/17 10:50:48;;;;;;;13.63;10.15;;;13.60;99.90;;;;;;5011532;28;21335;-66
2023/04/17 10:53:40;;;;;;;15.82;10.30;;;13.70;99.90;;;;;;5051834;28;21906;-65
2023/04/17 10:56:07;;;;;;;20.23;10.15;;;13.70;99.90;;;;;;5037930;28;20208;-65
2023/04/17 10:58:38;;;;;;;15.82;9.30;;;13.80;99.90;;;;;;5019722;28;20221;-66
2023/04/17 11:01:11;;;;;;;14.32;10.20;;;13.80;99.90;;;;;;5034114;28;20728;-66
2023/04/17 11:03:38;;;;;;;16.15;10.52;;;13.70;99.90;;;;;;5026912;28;20284;-65
2023/04/17 11:06:07;;;;;;;15.00;10.98;;;13.60;99.90;;;;;;5048648;28;20937;-65
2023/04/17 11:08:33;;;;;;;14.63;10.85;;;13.70;99.90;;;;;;5009659;28;20197;-65
2023/04/17 11:11:00;;;;;;;14.93;11.32;;;13.70;99.90;;;;;;5042321;28;20207;-66
2023/04/17 11:13:32;;;;;;;14.73;9.75;;;13.80;99.90;;;;;;5034702;28;20657;-65
2023/04/17 11:15:59;;;;;;;11.73;9.70;;;13.90;99.90;;;;;;5035860;28;20412;-65
2023/04/17 11:18:27;;;;;;;15.95;10.52;;;13.90;99.90;;;;;;5029768;28;20204;-65
2023/04/17 11:20:56;;;;;;;15.93;9.77;;;14.00;99.90;;;;;;5042596;28;20371;-65
2023/04/17 11:23:22;;;;;;;11.55;9.50;;;14.10;99.90;;;;;;5011451;28;20210;-65
2023/04/17 11:25:49;;;;;;;11.50;8.20;;;14.00;99.90;;;;;;5040968;28;20205;-65
2023/04/17 11:28:16;;;;;;;13.55;9.02;;;14.00;99.90;;;;;;5046528;28;20685;-66
2023/04/17 11:30:44;;;;;;;15.75;10.52;;;14.00;99.90;;;;;;5023916;28;20202;-65
2023/04/17 11:33:12;;;;;;;14.70;9.60;;;14.10;99.90;;;;;;5035702;28;20193;-65
2023/04/17 11:35:41;;;;;;;14.80;11.18;;;14.10;99.90;;;;;;5038511;28;20200;-65
2023/04/17 11:38:19;;;;;;;11.32;8.60;;;14.20;99.90;;;;;;5010754;28;20682;-65
2023/04/17 11:40:51;;;;;;;12.68;9.02;;;14.20;99.90;;;;;;5024749;28;20950;-65
2023/04/17 11:43:19;;;;;;;12.38;9.45;;;14.20;99.90;;;;;;5047798;28;20579;-65
2023/04/17 11:45:47;;;;;;;13.00;7.82;;;14.30;99.90;;;;;;5028403;28;20200;-65
2023/04/17 11:48:16;;;;;;;10.95;8.38;;;14.20;99.90;;;;;;5046234;28;20569;-66
2023/04/17 11:50:44;;;;;;;10.38;7.90;;;14.30;99.90;;;;;;5038657;28;20231;-65
2023/04/17 11:53:14;;;;;;;11.55;7.43;;;14.30;99.90;;;;;;5009136;28;20209;-65
2023/04/17 11:55:41;;;;;;;14.10;7.85;;;14.30;99.90;;;;;;5040530;28;21132;-65
2023/04/17 11:58:10;;;;;;;11.57;8.68;;;14.30;99.90;;;;;;5028622;28;20212;-65
2023/04/17 12:00:38;;;;;;;12.15;7.72;;;14.50;99.90;;;;;;5020194;28;20224;-65
2023/04/17 12:03:32;;;;;;;11.32;8.32;;;14.40;99.90;;;;;;5021172;28;21292;-65
2023/04/17 12:06:02;;;;;;;11.50;8.68;;;14.50;99.90;;;;;;5036836;28;20224;-65
2023/04/17 12:08:29;;;;;;;9.80;7.82;;;14.60;99.90;;;;;;5009985;28;20224;-65
2023/04/17 12:10:57;;;;;;;15.68;9.52;;;14.50;99.90;;;;;;5023432;28;20201;-65
2023/04/17 12:13:24;;;;;;;13.48;9.57;;;14.60;99.90;;;;;;5045612;28;20201;-65
2023/04/17 12:15:51;;;;;;;11.13;8.90;;;14.60;99.90;;;;;;5016424;28;20323;-66
2023/04/17 12:18:18;;;;;;;13.75;8.60;;;14.50;99.90;;;;;;5034886;28;21048;-66
2023/04/17 12:20:45;;;;;;;11.48;8.20;;;14.50;99.90;;;;;;5040055;28;20196;-66
2023/04/17 12:23:13;;;;;;;14.77;9.20;;;14.50;99.90;;;;;;5046300;28;20338;-66
2023/04/17 12:25:40;;;;;;;12.25;8.88;;;14.60;99.90;;;;;;5006533;28;20206;-65
2023/04/17 12:28:07;;;;;;;15.00;9.27;;;14.60;99.90;;;;;;5036666;28;20220;-65
2023/04/17 12:30:34;;;;;;;16.25;9.30;;;14.70;99.90;;;;;;5031785;28;20232;-65
2023/04/17 12:33:02;;;;;;;12.90;9.52;;;14.70;99.90;;;;;;5044294;28;20461;-65
2023/04/17 12:35:29;;;;;;;12.15;9.30;;;14.60;99.90;;;;;;5029527;28;20203;-65
2023/04/17 12:37:56;;;;;;;10.85;9.00;;;14.60;99.90;;;;;;5042737;28;20248;-65
2023/04/17 12:40:24;;;;;;;11.80;8.85;;;14.70;99.90;;;;;;5014053;28;20211;-66